createdAt,value
2018-11-23T00:01:15.397Z,8.60
2018-11-23T00:03:44.252Z,8.50
2018-11-23T00:09:01.913Z,8.10
2018-11-23T00:11:31.428Z,7.80
2018-11-23T00:13:58.886Z,7.90
2018-11-23T00:16:26.441Z,8.30
2018-11-23T00:18:53.830Z,8.40
2018-11-23T00:21:20.750Z,8.60
2018-11-23T00:23:50.056Z,8.40
2018-11-23T00:26:18.779Z,8.20
2018-11-23T00:28:56.952Z,8.20
2018-11-23T00:31:24.422Z,8.50
2018-11-23T00:33:53.084Z,8.60
2018-11-23T00:36:20.588Z,8.10
2018-11-23T00:38:46.998Z,8.10
2018-11-23T00:41:14.359Z,8.20
2018-11-23T00:43:41.498Z,8.40
2018-11-23T00:46:08.950Z,8.50
2018-11-23T00:48:47.847Z,8.40
2018-11-23T00:51:15.532Z,8.50
2018-11-23T00:53:46.174Z,8.40
2018-11-23T00:56:14.400Z,8.30
2018-11-23T00:58:41.821Z,8.50
2018-11-23T01:01:16.833Z,8.50
2018-11-23T01:03:46.065Z,8.40
2018-11-23T01:06:15.041Z,8.30
2018-11-23T01:08:58.897Z,8.30
2018-11-23T01:11:29.011Z,8.40
2018-11-23T01:13:56.457Z,8.50
2018-11-23T01:16:24.876Z,8.60
2018-11-23T01:18:53.707Z,8.60
2018-11-23T01:21:24.717Z,8.50
2018-11-23T01:23:52.233Z,8.70
2018-11-23T01:26:21.618Z,8.70
2018-11-23T01:34:18.987Z,8.80
2018-11-23T01:36:46.416Z,8.70
2018-11-23T01:39:15.226Z,8.20
2018-11-23T01:41:59.512Z,8.10
2018-11-23T01:44:30.351Z,8.30
2018-11-23T01:46:57.397Z,8.50
2018-11-23T01:49:24.112Z,8.30
2018-11-23T01:51:52.779Z,8.40
2018-11-23T01:54:19.491Z,8.40
2018-11-23T01:56:46.906Z,8.40
2018-11-23T01:59:14.403Z,8.30
2018-11-23T02:01:41.304Z,8.40
2018-11-23T02:04:12.210Z,8.20
2018-11-23T02:06:41.679Z,8.30
2018-11-23T02:09:08.813Z,8.30
2018-11-23T02:11:36.264Z,8.40
2018-11-23T02:14:07.123Z,8.40
2018-11-23T02:16:34.527Z,8.20
2018-11-23T02:19:04.990Z,8.10
2018-11-23T02:21:32.429Z,8.20
2018-11-23T02:23:59.369Z,8.20
2018-11-23T02:26:26.807Z,8.30
2018-11-23T02:28:54.279Z,8.20
2018-11-23T02:31:20.883Z,8.10
2018-11-23T02:33:47.342Z,8.30
2018-11-23T02:36:15.026Z,8.30
2018-11-23T02:38:42.504Z,8.20
2018-11-23T02:41:08.938Z,8.50
2018-11-23T02:43:36.388Z,8.40
2018-11-23T02:46:03.115Z,8.50
2018-11-23T02:48:30.555Z,8.50
2018-11-23T02:50:58.000Z,8.60
2018-11-23T02:53:24.811Z,8.60
2018-11-23T02:55:51.283Z,8.60
2018-11-23T02:58:18.736Z,8.30
2018-11-23T03:00:45.944Z,8.40
2018-11-23T03:03:12.376Z,8.30
2018-11-23T03:05:41.858Z,8.40
2018-11-23T03:08:09.001Z,8.40
2018-11-23T03:10:39.835Z,8.50
2018-11-23T03:13:07.284Z,8.30
2018-11-23T03:15:33.907Z,7.90
2018-11-23T03:18:00.346Z,7.90
2018-11-23T03:20:31.251Z,8.10
2018-11-23T03:22:58.334Z,8.40
2018-11-23T03:25:28.863Z,8.50
2018-11-23T03:27:59.762Z,8.60
2018-11-23T03:30:27.962Z,8.70
2018-11-23T03:32:55.381Z,8.90
2018-11-23T03:35:22.798Z,8.80
2018-11-23T03:37:52.885Z,8.90
2018-11-23T03:40:20.288Z,8.90
2018-11-23T03:42:51.387Z,8.60
2018-11-23T03:45:17.992Z,8.60
2018-11-23T03:47:45.871Z,8.40
2018-11-23T03:50:12.323Z,8.30
2018-11-23T03:52:39.316Z,8.20
2018-11-23T03:55:06.736Z,8.60
2018-11-23T03:57:37.796Z,8.60
2018-11-23T04:00:05.970Z,8.80
2018-11-23T04:02:36.698Z,8.90
2018-11-23T04:05:03.371Z,8.90
2018-11-23T04:07:30.195Z,8.80
2018-11-23T04:09:57.626Z,8.60
2018-11-23T04:15:13.315Z,8.70
2018-11-23T04:17:40.933Z,8.80
2018-11-23T04:20:08.366Z,8.50
2018-11-23T04:22:35.590Z,8.50
2018-11-23T04:25:03.074Z,8.30
2018-11-23T04:27:33.889Z,8.30
2018-11-23T04:30:03.734Z,8.60
2018-11-23T04:35:19.331Z,8.80
2018-11-23T04:37:46.786Z,8.90
2018-11-23T04:40:13.467Z,8.90
2018-11-23T04:42:39.896Z,8.50
2018-11-23T04:45:06.822Z,8.50
2018-11-23T04:47:33.539Z,8.90
2018-11-23T04:50:02.682Z,8.90
2018-11-23T04:52:29.147Z,8.70
2018-11-23T04:54:59.040Z,8.60
2018-11-23T04:57:26.721Z,8.90
2018-11-23T04:59:54.479Z,8.90
2018-11-23T05:02:25.275Z,8.40
2018-11-23T05:04:54.272Z,8.70
2018-11-23T05:07:22.001Z,8.60
2018-11-23T05:09:48.427Z,8.70
2018-11-23T05:12:19.723Z,8.80
2018-11-23T05:14:56.952Z,8.60
2018-11-23T05:17:26.624Z,8.80
2018-11-23T05:19:54.791Z,8.80
2018-11-23T05:22:22.486Z,8.80
2018-11-23T05:24:50.668Z,8.80
2018-11-23T05:27:17.814Z,8.90
2018-11-23T05:29:46.760Z,8.80
2018-11-23T05:32:17.812Z,8.60
2018-11-23T05:34:45.503Z,8.60
2018-11-23T05:37:14.795Z,8.50
2018-11-23T05:39:41.479Z,8.40
2018-11-23T05:42:11.117Z,8.40
2018-11-23T05:44:41.352Z,8.40
2018-11-23T05:47:11.743Z,8.20
2018-11-23T05:49:38.450Z,8.10
2018-11-23T05:52:05.360Z,8.20
2018-11-23T05:57:19.747Z,8.50
2018-11-23T05:59:47.129Z,8.80
2018-11-23T06:02:13.864Z,9.00
2018-11-23T06:04:40.297Z,9.00
2018-11-23T06:07:07.984Z,8.90
2018-11-23T06:09:34.662Z,8.90
2018-11-23T06:12:01.335Z,8.90
2018-11-23T06:14:31.675Z,8.70
2018-11-23T06:16:59.788Z,8.50
2018-11-23T06:19:27.487Z,8.70
2018-11-23T06:21:55.178Z,8.90
2018-11-23T06:24:27.572Z,9.00
2018-11-23T06:26:52.266Z,9.00
2018-11-23T06:29:20.396Z,9.00
2018-11-23T06:31:48.067Z,8.60
2018-11-23T06:34:14.711Z,8.30
2018-11-23T06:36:44.737Z,8.30
2018-11-23T06:39:17.321Z,8.30
2018-11-23T06:41:44.991Z,8.30
2018-11-23T06:44:14.240Z,8.40
2018-11-23T06:46:41.966Z,8.60
2018-11-23T06:49:09.929Z,8.70
2018-11-23T06:51:42.278Z,8.80
2018-11-23T06:54:26.749Z,8.70
2018-11-23T06:56:53.454Z,8.80
2018-11-23T07:02:18.133Z,8.60
2018-11-23T07:04:50.762Z,8.70
2018-11-23T07:07:18.743Z,8.60
2018-11-23T07:09:50.009Z,8.60
2018-11-23T07:12:32.465Z,8.60
2018-11-23T07:14:58.908Z,8.80
2018-11-23T07:17:26.626Z,8.80
2018-11-23T07:19:57.475Z,9.00
2018-11-23T07:22:28.206Z,9.00
2018-11-23T07:24:54.798Z,9.00
2018-11-23T07:27:31.512Z,8.90
2018-11-23T07:32:47.171Z,8.90
2018-11-23T07:35:14.426Z,9.10
2018-11-23T07:37:41.327Z,9.10
2018-11-23T07:40:10.506Z,8.60
2018-11-23T07:42:39.736Z,8.40
2018-11-23T07:45:06.394Z,8.60
2018-11-23T07:47:34.297Z,8.80
2018-11-23T07:50:02.474Z,9.00
2018-11-23T07:52:39.035Z,8.70
2018-11-23T07:55:07.548Z,8.50
2018-11-23T07:57:37.879Z,8.10
2018-11-23T08:00:07.810Z,8.50
2018-11-23T08:02:35.424Z,8.90
2018-11-23T08:05:02.593Z,9.10
2018-11-23T08:07:29.787Z,9.10
2018-11-23T08:09:57.622Z,9.00
2018-11-23T08:12:25.068Z,9.00
2018-11-23T08:14:51.503Z,8.90
2018-11-23T08:17:17.928Z,8.90
2018-11-23T08:19:47.483Z,8.80
2018-11-23T08:22:15.038Z,8.70
2018-11-23T08:27:31.273Z,9.10
2018-11-23T08:30:01.390Z,9.10
2018-11-23T08:32:28.516Z,9.20
2018-11-23T08:35:00.839Z,9.10
2018-11-23T08:37:28.566Z,9.20
2018-11-23T08:39:55.229Z,9.20
2018-11-23T08:42:23.358Z,8.60
2018-11-23T08:45:05.805Z,8.60
2018-11-23T08:47:33.495Z,8.90
2018-11-23T08:50:01.200Z,8.80
2018-11-23T08:52:39.535Z,8.90
2018-11-23T08:55:06.677Z,8.80
2018-11-23T08:57:34.357Z,8.60
2018-11-23T09:00:01.625Z,8.00
2018-11-23T09:02:29.767Z,7.80
2018-11-23T09:04:59.566Z,8.00
2018-11-23T09:07:29.270Z,8.50
2018-11-23T09:09:57.691Z,8.80
2018-11-23T09:12:25.578Z,8.80
2018-11-23T09:15:03.313Z,8.90
2018-11-23T09:20:16.234Z,9.00
2018-11-23T09:22:43.923Z,9.10
2018-11-23T09:25:11.684Z,9.20
2018-11-23T09:27:39.408Z,9.10
2018-11-23T09:32:52.466Z,9.20
2018-11-23T09:35:22.269Z,9.10
2018-11-23T09:37:50.421Z,8.70
2018-11-23T09:40:18.161Z,8.60
2018-11-23T09:45:32.901Z,8.50
2018-11-23T09:48:05.168Z,8.80
2018-11-23T09:53:19.967Z,9.10
2018-11-23T09:55:46.395Z,9.40
2018-11-23T09:58:15.100Z,9.20
2018-11-23T10:03:28.107Z,8.60
2018-11-23T10:05:55.803Z,8.70
2018-11-23T10:08:22.233Z,8.90
2018-11-23T10:10:48.680Z,9.20
2018-11-23T10:13:18.513Z,8.90
2018-11-23T10:18:34.854Z,8.80
2018-11-23T10:21:02.534Z,8.90
2018-11-23T10:23:34.904Z,9.00
2018-11-23T10:28:48.232Z,8.90
2018-11-23T10:31:14.685Z,9.10
2018-11-23T10:33:45.472Z,9.20
2018-11-23T10:36:14.413Z,9.30
2018-11-23T10:38:41.645Z,9.10
2018-11-23T10:41:09.744Z,9.20
2018-11-23T10:43:37.923Z,9.20
2018-11-23T10:46:05.157Z,9.40
2018-11-23T10:48:34.444Z,9.50
2018-11-23T10:51:04.326Z,9.50
2018-11-23T10:53:33.649Z,8.80
2018-11-23T10:56:00.338Z,8.60
2018-11-23T10:58:27.442Z,8.80
2018-11-23T11:00:53.913Z,8.60
2018-11-23T11:03:20.574Z,8.70
2018-11-23T11:05:47.273Z,8.80
2018-11-23T11:08:14.457Z,9.00
2018-11-23T11:10:43.488Z,9.00
2018-11-23T11:13:12.341Z,9.00
2018-11-23T11:15:39.464Z,9.10
2018-11-23T11:18:09.365Z,8.80
2018-11-23T11:20:38.899Z,8.90
2018-11-23T11:23:10.069Z,9.20
2018-11-23T11:25:37.337Z,9.20
2018-11-23T11:28:07.197Z,9.20
2018-11-23T11:30:46.120Z,9.50
2018-11-23T11:33:12.859Z,9.10
2018-11-23T11:35:41.631Z,9.10
2018-11-23T11:38:09.363Z,9.20
2018-11-23T11:40:39.141Z,9.30
2018-11-23T11:43:08.703Z,9.40
2018-11-23T11:45:37.897Z,9.30
2018-11-23T11:48:05.629Z,9.20
2018-11-23T11:50:35.176Z,9.10
2018-11-23T11:53:01.644Z,9.10
2018-11-23T11:55:31.646Z,9.20
2018-11-23T11:58:00.129Z,9.00
2018-11-23T12:00:30.030Z,9.20
2018-11-23T12:03:03.355Z,9.40
2018-11-23T12:05:33.424Z,9.20
2018-11-23T12:08:01.038Z,9.20
2018-11-23T12:10:27.561Z,9.00
2018-11-23T12:12:56.562Z,9.00
2018-11-23T12:18:14.797Z,8.80
2018-11-23T12:20:45.241Z,8.90
2018-11-23T12:23:12.926Z,9.30
2018-11-23T12:25:40.813Z,9.30
2018-11-23T12:28:09.709Z,9.40
2018-11-23T12:30:36.135Z,9.40
2018-11-23T12:33:03.576Z,9.70
2018-11-23T12:35:33.100Z,9.50
2018-11-23T12:37:59.854Z,9.50
2018-11-23T12:43:17.274Z,9.40
2018-11-23T12:45:46.445Z,9.40
2018-11-23T12:48:13.148Z,9.60
2018-11-23T12:50:46.863Z,9.40
2018-11-23T12:53:17.247Z,9.30
2018-11-23T12:55:47.499Z,9.30
2018-11-23T12:58:14.786Z,9.50
2018-11-23T13:00:42.167Z,9.50
2018-11-23T13:03:09.989Z,9.50
2018-11-23T13:08:25.672Z,9.30
2018-11-23T13:10:55.332Z,9.40
2018-11-23T13:13:24.711Z,9.30
2018-11-23T13:15:51.226Z,9.30
2018-11-23T13:18:19.349Z,9.20
2018-11-23T13:20:46.078Z,9.00
2018-11-23T13:23:13.532Z,8.60
2018-11-23T13:25:42.484Z,8.70
2018-11-23T13:28:12.330Z,8.80
2018-11-23T13:30:39.222Z,8.90
2018-11-23T13:33:16.215Z,8.90
2018-11-23T13:35:46.495Z,9.20
2018-11-23T13:38:13.919Z,9.30
2018-11-23T13:40:44.862Z,9.30
2018-11-23T13:43:11.330Z,9.10
2018-11-23T13:45:38.991Z,9.40
2018-11-23T13:50:54.535Z,9.40
2018-11-23T13:53:21.867Z,9.50
2018-11-23T13:58:36.933Z,9.50
2018-11-23T14:01:03.653Z,9.50
2018-11-23T14:03:34.596Z,9.60
2018-11-23T14:06:01.485Z,9.40
2018-11-23T14:11:17.126Z,9.40
2018-11-23T14:13:44.866Z,9.20
2018-11-23T14:16:12.055Z,9.10
2018-11-23T14:18:38.721Z,9.30
2018-11-23T14:21:06.633Z,9.50
2018-11-23T14:23:34.705Z,9.50
2018-11-23T14:26:10.284Z,9.50
2018-11-23T14:28:38.561Z,8.90
2018-11-23T14:31:05.293Z,8.50
2018-11-23T14:33:48.748Z,8.90
2018-11-23T14:36:15.589Z,9.20
2018-11-23T14:38:42.802Z,9.50
2018-11-23T14:41:11.922Z,9.50
2018-11-23T14:43:42.614Z,9.40
2018-11-23T14:46:10.050Z,9.10
2018-11-23T14:48:37.848Z,9.30
2018-11-23T14:51:08.849Z,9.50
2018-11-23T14:53:39.652Z,9.40
2018-11-23T14:56:06.786Z,9.50
2018-11-23T14:58:34.594Z,9.60
2018-11-23T15:01:01.839Z,9.60
2018-11-23T15:03:42.951Z,9.40
2018-11-23T15:06:10.444Z,9.40
2018-11-23T15:11:24.693Z,9.50
2018-11-23T15:13:55.532Z,9.60
2018-11-23T15:16:26.473Z,9.30
2018-11-23T15:21:40.580Z,9.40
2018-11-23T15:24:08.706Z,9.30
2018-11-23T15:26:38.098Z,9.40
2018-11-23T15:29:06.977Z,9.20
2018-11-23T15:31:35.743Z,9.30
2018-11-23T15:34:02.900Z,9.30
2018-11-23T15:36:38.054Z,9.40
2018-11-23T15:39:09.299Z,9.30
2018-11-23T15:41:38.998Z,8.90
2018-11-23T15:44:09.067Z,9.20
2018-11-23T15:46:38.382Z,9.00
2018-11-23T15:49:09.098Z,9.20
2018-11-23T15:51:36.781Z,9.30
2018-11-23T15:54:05.883Z,9.10
2018-11-23T15:56:35.034Z,9.20
2018-11-23T15:59:05.336Z,9.20
2018-11-23T16:01:39.159Z,9.40
2018-11-23T16:04:11.106Z,9.40
2018-11-23T16:06:37.654Z,9.40
2018-11-23T16:11:51.472Z,9.20
2018-11-23T16:14:17.934Z,9.30
2018-11-23T16:16:46.533Z,9.30
2018-11-23T16:19:13.181Z,9.40
2018-11-23T16:21:43.708Z,9.60
2018-11-23T16:24:13.206Z,9.50
2018-11-23T16:26:53.110Z,9.40
2018-11-23T16:29:21.680Z,9.30
2018-11-23T16:31:52.416Z,9.20
2018-11-23T16:34:19.249Z,9.30
2018-11-23T16:36:50.979Z,9.20
2018-11-23T16:39:18.396Z,9.30
2018-11-23T16:41:45.575Z,8.60
2018-11-23T16:44:17.980Z,8.40
2018-11-23T16:46:48.581Z,8.80
2018-11-23T16:49:16.324Z,8.80
2018-11-23T16:51:43.365Z,8.90
2018-11-23T16:54:11.207Z,9.10
2018-11-23T16:56:41.772Z,9.10
2018-11-23T16:59:13.454Z,8.70
2018-11-23T17:01:40.195Z,8.70
2018-11-23T17:04:08.226Z,8.70
2018-11-23T17:06:39.582Z,8.70
2018-11-23T17:09:08.739Z,8.70
2018-11-23T17:11:36.901Z,8.80
2018-11-23T17:14:03.913Z,9.00
2018-11-23T17:16:34.664Z,9.10
2018-11-23T17:20:04.142Z,9.00
2018-11-23T17:22:32.227Z,9.20
2018-11-23T17:24:58.929Z,9.30
2018-11-23T17:27:26.749Z,9.30
2018-11-23T17:29:54.205Z,9.40
2018-11-23T17:35:08.173Z,9.30
2018-11-23T17:40:22.891Z,9.50
2018-11-23T17:42:50.101Z,9.20
2018-11-23T17:45:17.230Z,9.10
2018-11-23T17:47:46.961Z,9.10
2018-11-23T17:53:03.642Z,8.80
2018-11-23T17:55:33.899Z,8.80
2018-11-23T17:58:03.026Z,9.00
2018-11-23T18:00:38.850Z,9.10
2018-11-23T18:03:00.533Z,9.10
2018-11-23T18:05:29.759Z,9.10
2018-11-23T18:07:57.529Z,9.30
2018-11-23T18:20:45.180Z,9.30
2018-11-23T18:23:14.009Z,9.20
2018-11-23T18:25:43.108Z,9.30
2018-11-23T18:28:12.044Z,9.40
2018-11-23T18:30:39.722Z,9.40
2018-11-23T18:33:06.214Z,9.20
2018-11-23T18:35:33.090Z,9.00
2018-11-23T18:38:01.153Z,9.00
2018-11-23T18:40:36.955Z,9.00
2018-11-23T18:43:00.756Z,9.10
2018-11-23T18:45:27.410Z,9.30
2018-11-23T18:47:54.353Z,9.20
2018-11-23T18:50:20.759Z,9.20
2018-11-23T18:52:47.317Z,9.00
2018-11-23T18:55:18.970Z,8.80
2018-11-23T18:57:45.410Z,8.90
2018-11-23T19:03:02.710Z,8.80
2018-11-23T19:08:16.241Z,8.70
2018-11-23T19:10:42.942Z,8.70
2018-11-23T19:13:10.658Z,8.50
2018-11-23T19:15:37.616Z,8.50
2018-11-23T19:18:04.500Z,8.40
2018-11-23T19:20:30.950Z,8.10
2018-11-23T19:22:58.854Z,8.00
2018-11-23T19:25:27.684Z,7.90
2018-11-23T19:30:46.208Z,7.90
2018-11-23T19:33:28.688Z,8.00
2018-11-23T19:35:58.033Z,8.20
2018-11-23T19:38:26.149Z,8.30
2018-11-23T19:40:56.062Z,8.40
2018-11-23T19:46:11.480Z,8.40
2018-11-23T19:48:38.891Z,8.60
2018-11-23T19:51:07.007Z,8.60
2018-11-23T19:53:34.212Z,8.50
2018-11-23T19:56:04.861Z,8.70
2018-11-23T19:58:32.911Z,8.90
2018-11-23T20:01:01.015Z,9.00
2018-11-23T20:03:30.828Z,8.90
2018-11-23T20:06:01.659Z,8.70
2018-11-23T20:08:32.764Z,8.50
2018-11-23T20:11:00.162Z,8.50
2018-11-23T20:13:33.772Z,8.70
2018-11-23T20:16:01.187Z,8.80
2018-11-23T20:18:27.825Z,8.70
2018-11-23T20:21:04.349Z,8.80
2018-11-23T20:23:35.008Z,8.80
2018-11-23T20:26:01.523Z,9.00
2018-11-23T20:28:32.279Z,9.00
2018-11-23T20:33:46.733Z,9.10
2018-11-23T20:39:01.391Z,8.80
2018-11-23T20:41:32.787Z,8.50
2018-11-23T20:44:00.482Z,8.60
2018-11-23T20:46:29.919Z,8.40
2018-11-23T20:48:57.159Z,8.40
2018-11-23T20:51:30.947Z,8.30
2018-11-23T20:54:00.321Z,8.40
2018-11-23T20:59:14.512Z,8.70
2018-11-23T21:01:41.244Z,8.80
2018-11-23T21:04:11.311Z,8.80
2018-11-23T21:06:48.484Z,8.70
2018-11-23T21:09:17.490Z,8.50
2018-11-23T21:11:43.926Z,8.50
2018-11-23T21:14:11.581Z,8.40
2018-11-23T21:19:26.491Z,8.70
2018-11-23T21:21:59.313Z,8.60
2018-11-23T21:24:26.293Z,8.40
2018-11-23T21:26:53.033Z,8.60
2018-11-23T21:29:20.569Z,8.50
2018-11-23T21:31:48.252Z,8.90
2018-11-23T21:34:16.458Z,8.90
2018-11-23T21:36:46.832Z,8.90
2018-11-23T21:39:14.933Z,9.00
2018-11-23T21:41:43.676Z,8.80
2018-11-23T21:44:14.965Z,8.80
2018-11-23T21:46:41.693Z,8.80
2018-11-23T21:49:09.909Z,8.70
2018-11-23T21:51:37.592Z,8.60
2018-11-23T21:54:04.900Z,8.80
2018-11-23T21:56:32.607Z,8.90
2018-11-23T22:01:46.605Z,8.70
2018-11-23T22:04:15.562Z,8.80
2018-11-23T22:06:41.977Z,8.90
2018-11-23T22:09:15.639Z,8.20
2018-11-23T22:11:52.201Z,8.40
2018-11-23T22:14:14.055Z,8.50
2018-11-23T22:16:41.943Z,8.70
2018-11-23T22:19:12.385Z,8.60
2018-11-23T22:21:39.124Z,8.80
2018-11-23T22:24:06.880Z,8.40
2018-11-23T22:26:42.627Z,8.20
2018-11-23T22:29:09.463Z,8.30
2018-11-23T22:31:40.604Z,8.50
2018-11-23T22:34:10.247Z,8.60
2018-11-23T22:36:39.816Z,8.60
2018-11-23T22:39:07.941Z,8.30
2018-11-23T22:41:37.481Z,8.00
2018-11-23T22:44:04.651Z,7.90
2018-11-23T22:46:35.517Z,8.00
2018-11-23T22:49:02.963Z,8.40
2018-11-23T22:51:31.109Z,8.30
2018-11-23T22:54:00.336Z,8.10
2018-11-23T22:56:29.134Z,8.20
2018-11-23T22:58:58.082Z,8.50
2018-11-23T23:01:25.763Z,8.70
2018-11-23T23:03:55.995Z,8.90
2018-11-23T23:06:27.021Z,9.00
2018-11-23T23:08:55.646Z,9.00
2018-11-23T23:11:22.335Z,9.00
2018-11-23T23:13:56.765Z,8.80
2018-11-23T23:16:25.731Z,8.90
2018-11-23T23:18:52.912Z,9.00
2018-11-23T23:21:21.781Z,8.40
2018-11-23T23:23:48.209Z,8.50
2018-11-23T23:26:18.660Z,8.80
2018-11-23T23:28:46.766Z,8.20
2018-11-23T23:31:17.336Z,8.00
2018-11-23T23:33:48.372Z,8.40
2018-11-23T23:36:14.818Z,8.60
2018-11-23T23:38:41.484Z,8.80
2018-11-23T23:41:08.198Z,8.80
2018-11-23T23:43:34.907Z,9.00
2018-11-23T23:46:01.612Z,8.90
2018-11-23T23:48:29.099Z,8.60
2018-11-23T23:50:57.177Z,8.60
2018-11-23T23:53:25.839Z,8.50
2018-11-23T23:55:54.438Z,8.50
2018-11-23T23:58:21.167Z,8.40
